Avalon, Wisconsin
Current Conditions -  °F | °C
As of 12:55 AM on Monday 24 Nov 2014 (Local Time) from KJVL Reporting Station
Drizzle Drizzle  
Wind Chill:   Ceiling: 200
Heat Index:   Visibility: 0.25mi
Dew Point:   Wind: 3mph
Humidity: 93%   Direction: 260°W
Pressure: 29.08"   Gusts: NA
Location:  42.63°N, 88.87°W
Report Text: KJVL 240655Z AUTO 26003KT 1/4SM -DZ OVC002 07/06 A2908 RMK AO2
Loading
Personal Weather Stations






























Interactive Weather Map New forecast layout! Learn more

10-Day Weather Forecast

Advertisements
Track Severe Weather on mobile